createdAt,value
2018-01-12T00:01:45.532Z,40.10
2018-01-12T00:04:13.190Z,36.53
2018-01-12T00:06:40.813Z,32.15
2018-01-12T00:09:08.437Z,33.70
2018-01-12T00:11:36.099Z,43.92
2018-01-12T00:14:03.717Z,42.10
2018-01-12T00:16:32.124Z,41.10
2018-01-12T00:18:59.737Z,40.85
2018-01-12T00:21:27.354Z,41.50
2018-01-12T00:23:55.777Z,40.55
2018-01-12T00:26:23.468Z,33.55
2018-01-12T00:28:51.110Z,31.98
2018-01-12T00:31:18.739Z,34.55
2018-01-12T00:33:46.370Z,36.58
2018-01-12T00:36:14.042Z,35.47
2018-01-12T00:38:41.675Z,38.10
2018-01-12T00:41:10.085Z,39.90
2018-01-12T00:43:38.483Z,42.70
2018-01-12T00:46:06.119Z,34.17
2018-01-12T00:48:33.766Z,35.22
2018-01-12T00:51:01.398Z,32.80
2018-01-12T00:53:29.826Z,35.60
2018-01-12T00:55:57.473Z,43.40
2018-01-12T00:58:25.193Z,40.65
2018-01-12T01:00:52.841Z,38.03
2018-01-12T01:03:20.552Z,47.22
2018-01-12T01:05:48.204Z,43.80
2018-01-12T01:08:15.820Z,50.33
2018-01-12T01:10:43.461Z,57.60
2018-01-12T01:13:11.125Z,47.45
2018-01-12T01:15:38.750Z,48.22
2018-01-12T01:18:07.174Z,87.85
2018-01-12T01:20:34.793Z,66.00
2018-01-12T01:23:02.414Z,89.00
2018-01-12T01:25:30.101Z,95.28
2018-01-12T01:27:57.718Z,81.95
2018-01-12T01:30:26.337Z,82.05
2018-01-12T01:32:54.723Z,81.00
2018-01-12T01:35:23.122Z,76.70
2018-01-12T01:37:51.537Z,80.62
2018-01-12T01:40:19.169Z,84.03
2018-01-12T01:42:46.827Z,69.97
2018-01-12T01:45:14.465Z,83.80
2018-01-12T01:47:42.092Z,88.10
2018-01-12T01:50:09.765Z,87.72
2018-01-12T01:52:37.389Z,99.15
2018-01-12T01:55:05.054Z,100.12
2018-01-12T01:57:32.699Z,120.28
2018-01-12T02:00:00.322Z,104.53
2018-01-12T02:02:27.965Z,84.25
2018-01-12T02:04:56.345Z,75.37
2018-01-12T02:07:24.801Z,76.55
2018-01-12T02:09:52.422Z,110.12
2018-01-12T02:12:20.810Z,103.62
2018-01-12T02:14:49.221Z,80.53
2018-01-12T02:17:16.845Z,72.55
2018-01-12T02:19:44.490Z,68.22
2018-01-12T02:22:12.105Z,64.05
2018-01-12T02:24:39.733Z,73.65
2018-01-12T02:27:07.407Z,77.87
2018-01-12T02:29:35.038Z,97.70
2018-01-12T02:32:03.458Z,132.70
2018-01-12T02:34:31.094Z,138.60
2018-01-12T02:36:58.723Z,117.78
2018-01-12T02:39:26.381Z,151.30
2018-01-12T02:41:54.001Z,118.87
2018-01-12T02:44:21.665Z,118.20
2018-01-12T02:46:49.286Z,146.13
2018-01-12T02:49:17.676Z,100.00
2018-01-12T02:51:46.106Z,125.65
2018-01-12T02:54:13.747Z,114.25
2018-01-12T02:56:41.418Z,125.95
2018-01-12T02:59:09.810Z,86.55
2018-01-12T03:01:38.201Z,125.05
2018-01-12T03:04:06.628Z,128.62
2018-01-12T03:06:34.253Z,171.98
2018-01-12T03:09:01.906Z,115.97
2018-01-12T03:11:29.567Z,144.85
2018-01-12T03:13:57.197Z,90.18
2018-01-12T03:16:25.639Z,104.10
2018-01-12T03:18:53.278Z,143.32
2018-01-12T03:21:20.934Z,98.80
2018-01-12T03:23:49.317Z,101.10
2018-01-12T03:26:16.946Z,142.30
2018-01-12T03:28:44.612Z,110.53
2018-01-12T03:31:12.231Z,123.53
2018-01-12T03:33:39.900Z,148.52
2018-01-12T03:36:08.305Z,163.68
2018-01-12T03:38:36.698Z,192.30
2018-01-12T03:41:05.130Z,130.80
2018-01-12T03:43:32.760Z,93.90
2018-01-12T03:46:00.418Z,86.93
2018-01-12T03:48:28.056Z,83.45
2018-01-12T03:50:55.754Z,117.28
2018-01-12T03:53:23.409Z,110.07
2018-01-12T03:55:51.023Z,96.00
2018-01-12T03:58:18.681Z,134.40
2018-01-12T04:00:46.299Z,83.60
2018-01-12T04:03:14.694Z,122.40
2018-01-12T04:05:43.106Z,76.12
2018-01-12T04:08:10.729Z,70.90
2018-01-12T04:10:38.395Z,90.55
2018-01-12T04:13:06.017Z,94.68
2018-01-12T04:15:33.653Z,68.37
2018-01-12T04:18:01.317Z,63.92
2018-01-12T04:20:28.933Z,82.50
2018-01-12T04:22:57.346Z,58.72
2018-01-12T04:25:24.967Z,60.92
2018-01-12T04:27:52.594Z,60.20
2018-01-12T04:30:20.247Z,60.78
2018-01-12T04:32:47.882Z,90.00
2018-01-12T04:35:15.540Z,59.03
2018-01-12T04:37:43.152Z,59.50
2018-01-12T04:40:10.760Z,57.78
2018-01-12T04:42:38.416Z,53.67
2018-01-12T04:45:06.803Z,78.00
2018-01-12T04:47:35.237Z,67.18
2018-01-12T04:50:02.867Z,83.45
2018-01-12T04:52:30.493Z,84.70
2018-01-12T04:54:58.147Z,77.45
2018-01-12T04:57:25.782Z,76.78
2018-01-12T04:59:54.214Z,56.47
2018-01-12T05:02:21.874Z,66.90
2018-01-12T05:04:49.490Z,54.22
2018-01-12T05:07:18.611Z,77.07
2018-01-12T05:09:46.223Z,51.88
2018-01-12T05:12:13.877Z,70.20
2018-01-12T05:14:41.599Z,79.12
2018-01-12T05:17:09.221Z,57.08
2018-01-12T05:19:36.874Z,50.67
2018-01-12T05:22:04.499Z,51.58
2018-01-12T05:24:32.166Z,45.72
2018-01-12T05:26:59.779Z,54.75
2018-01-12T05:29:27.414Z,52.92
2018-01-12T05:31:55.842Z,39.92
2018-01-12T05:34:23.458Z,67.43
2018-01-12T05:36:51.106Z,53.30
2018-01-12T05:39:18.724Z,46.20
2018-01-12T05:41:47.105Z,49.47
2018-01-12T05:44:14.751Z,55.30
2018-01-12T05:46:42.360Z,48.72
2018-01-12T05:49:10.781Z,48.63
2018-01-12T05:51:38.406Z,59.83
2018-01-12T05:54:06.028Z,42.92
2018-01-12T05:56:33.734Z,42.42
2018-01-12T05:59:01.386Z,54.92
2018-01-12T06:01:41.020Z,41.40
2018-01-12T06:04:20.265Z,56.42
2018-01-12T06:06:48.672Z,75.03
2018-01-12T06:09:16.381Z,58.70
2018-01-12T06:11:44.033Z,42.55
2018-01-12T06:14:11.662Z,67.65
2018-01-12T06:16:40.063Z,59.88
2018-01-12T06:19:08.484Z,67.65
2018-01-12T06:21:36.098Z,53.85
2018-01-12T06:24:03.746Z,47.17
2018-01-12T06:26:31.403Z,55.70
2018-01-12T06:28:59.025Z,45.42
2018-01-12T06:31:26.811Z,42.08
2018-01-12T06:33:54.424Z,72.78
2018-01-12T06:36:22.078Z,47.13
2018-01-12T06:38:50.459Z,43.60
2018-01-12T06:41:18.086Z,67.68
2018-01-12T06:43:45.749Z,43.35
2018-01-12T06:46:13.361Z,46.42
2018-01-12T06:48:41.036Z,43.03
2018-01-12T06:51:08.645Z,38.55
2018-01-12T06:53:36.273Z,45.22
2018-01-12T06:56:03.928Z,38.55
2018-01-12T06:58:31.541Z,47.97
2018-01-12T07:00:59.193Z,51.03
2018-01-12T07:03:26.818Z,71.12
2018-01-12T07:05:54.442Z,95.80
2018-01-12T07:08:22.101Z,51.63
2018-01-12T07:10:49.709Z,46.80
2018-01-12T07:13:17.352Z,54.00
2018-01-12T07:15:44.960Z,58.97
2018-01-12T07:18:12.578Z,84.78
2018-01-12T07:20:52.086Z,69.37
2018-01-12T07:23:31.601Z,74.72
2018-01-12T07:25:59.250Z,52.05
2018-01-12T07:28:27.626Z,59.45
2018-01-12T07:30:56.049Z,64.37
2018-01-12T07:33:23.670Z,44.83
2018-01-12T07:35:51.324Z,88.47
2018-01-12T07:38:18.972Z,53.70
2018-01-12T07:40:46.596Z,52.00
2018-01-12T07:43:14.246Z,79.85
2018-01-12T07:45:41.861Z,47.92
2018-01-12T07:48:10.248Z,53.67
2018-01-12T07:50:38.675Z,41.55
2018-01-12T07:53:12.044Z,76.60
2018-01-12T07:55:39.689Z,87.45
2018-01-12T07:58:07.363Z,117.22
2018-01-12T08:00:40.800Z,53.10
2018-01-12T08:03:08.423Z,53.30
2018-01-12T08:05:36.069Z,53.33
2018-01-12T08:08:04.448Z,54.55
2018-01-12T08:10:32.829Z,49.75
2018-01-12T08:13:00.479Z,46.60
2018-01-12T08:15:28.098Z,56.78
2018-01-12T08:17:56.505Z,48.53
2018-01-12T08:20:24.115Z,71.47
2018-01-12T08:22:51.725Z,46.28
2018-01-12T08:25:19.382Z,51.17
2018-01-12T08:27:46.997Z,67.68
2018-01-12T08:30:14.641Z,50.40
2018-01-12T08:32:42.290Z,61.63
2018-01-12T08:35:09.907Z,47.88
2018-01-12T08:37:37.568Z,57.90
2018-01-12T08:40:05.965Z,88.72
2018-01-12T08:42:33.580Z,60.88
2018-01-12T08:45:01.225Z,79.68
2018-01-12T08:47:29.609Z,59.40
2018-01-12T08:49:57.985Z,55.97
2018-01-12T08:52:25.629Z,44.85
2018-01-12T08:54:53.236Z,58.15
2018-01-12T08:57:20.853Z,64.72
2018-01-12T08:59:48.497Z,58.30
2018-01-12T09:02:16.889Z,121.53
2018-01-12T09:04:45.268Z,77.28
2018-01-12T09:07:12.924Z,141.20
2018-01-12T09:09:40.533Z,77.40
2018-01-12T09:12:08.906Z,59.10
2018-01-12T09:14:48.287Z,91.12
2018-01-12T09:17:30.783Z,90.80
2018-01-12T09:20:10.422Z,62.30
2018-01-12T09:22:49.256Z,109.47
2018-01-12T09:25:23.782Z,68.05
2018-01-12T09:27:51.400Z,69.65
2018-01-12T09:30:19.789Z,71.20
2018-01-12T09:32:50.044Z,65.90
2018-01-12T09:35:17.673Z,93.00
2018-01-12T09:37:45.283Z,56.37
2018-01-12T09:43:05.916Z,83.47
2018-01-12T09:45:34.341Z,64.22
2018-01-12T09:48:13.804Z,69.00
2018-01-12T09:50:41.456Z,64.95
2018-01-12T09:53:09.082Z,88.45
2018-01-12T09:55:36.688Z,80.32
2018-01-12T09:58:05.101Z,128.02
2018-01-12T10:00:44.690Z,120.22
2018-01-12T10:03:12.341Z,83.50
2018-01-12T10:05:39.965Z,124.07
2018-01-12T10:08:15.487Z,114.82
2018-01-12T10:10:43.109Z,108.20
2018-01-12T10:13:11.497Z,116.10
2018-01-12T10:15:39.157Z,110.45
2018-01-12T10:18:12.583Z,89.53
2018-01-12T10:20:40.993Z,88.78
2018-01-12T10:23:09.412Z,92.00
2018-01-12T10:25:37.033Z,90.10
2018-01-12T10:28:04.678Z,92.30
2018-01-12T10:31:03.528Z,81.82
2018-01-12T10:36:39.977Z,101.93
2018-01-12T10:39:19.421Z,104.65
2018-01-12T10:41:58.929Z,104.18
2018-01-12T10:44:26.575Z,94.28
2018-01-12T10:50:18.590Z,97.18
2018-01-12T10:52:50.953Z,96.78
2018-01-12T10:55:18.613Z,87.95
2018-01-12T10:57:46.233Z,93.90
2018-01-12T11:00:32.295Z,101.22
2018-01-12T11:02:59.925Z,106.43
2018-01-12T11:05:28.408Z,88.10
2018-01-12T11:07:56.063Z,92.45
2018-01-12T11:10:23.686Z,79.32
2018-01-12T11:12:51.645Z,106.30
2018-01-12T11:15:19.260Z,99.10
2018-01-12T11:17:46.876Z,82.10
2018-01-12T11:20:14.525Z,117.35
2018-01-12T11:22:42.140Z,84.37
2018-01-12T11:25:09.785Z,88.80
2018-01-12T11:27:37.404Z,103.80
2018-01-12T11:30:05.789Z,101.12
2018-01-12T11:32:34.212Z,98.78
2018-01-12T11:35:01.846Z,102.32
2018-01-12T11:37:30.258Z,91.10
2018-01-12T11:39:57.882Z,108.22
2018-01-12T11:42:25.501Z,111.78
2018-01-12T11:44:53.942Z,126.62
2018-01-12T11:47:21.561Z,106.32
2018-01-12T11:49:49.982Z,100.18
2018-01-12T11:52:17.613Z,117.05
2018-01-12T11:54:45.231Z,102.50
2018-01-12T11:57:12.880Z,110.95
2018-01-12T11:59:41.265Z,152.40
2018-01-12T12:02:09.698Z,111.00
2018-01-12T12:04:37.317Z,138.25
2018-01-12T12:07:05.708Z,121.90
2018-01-12T12:09:33.456Z,144.57
2018-01-12T12:12:01.080Z,121.68
2018-01-12T12:14:29.497Z,166.82
2018-01-12T12:16:57.121Z,111.20
2018-01-12T12:19:24.749Z,108.95
2018-01-12T12:21:52.394Z,103.32
2018-01-12T12:24:20.021Z,100.38
2018-01-12T12:26:48.281Z,102.78
2018-01-12T12:29:15.898Z,100.55
2018-01-12T12:31:43.512Z,131.52
2018-01-12T12:34:11.170Z,106.20
2018-01-12T12:36:39.596Z,101.82
2018-01-12T12:39:07.285Z,100.75
2018-01-12T12:41:34.941Z,101.05
2018-01-12T12:44:02.599Z,101.53
2018-01-12T12:46:30.313Z,90.80
2018-01-12T12:48:57.925Z,91.97
2018-01-12T12:51:25.590Z,105.97
2018-01-12T12:53:53.206Z,78.10
2018-01-12T12:56:20.813Z,95.80
2018-01-12T12:58:48.465Z,101.22
2018-01-12T13:01:16.081Z,100.30
2018-01-12T13:03:43.734Z,87.75
2018-01-12T13:06:11.360Z,100.45
2018-01-12T13:08:39.742Z,95.78
2018-01-12T13:11:07.396Z,95.53
2018-01-12T13:13:35.057Z,111.75
2018-01-12T13:16:02.706Z,87.37
2018-01-12T13:18:30.324Z,82.80
2018-01-12T13:20:57.980Z,103.30
2018-01-12T13:23:25.617Z,77.22
2018-01-12T13:25:53.234Z,86.05
2018-01-12T13:28:20.901Z,91.85
2018-01-12T13:30:48.522Z,91.47
2018-01-12T13:33:16.920Z,85.68
2018-01-12T13:35:44.573Z,85.75
2018-01-12T13:38:12.181Z,83.78
2018-01-12T13:40:39.829Z,82.68
2018-01-12T13:43:08.205Z,94.37
2018-01-12T13:45:35.833Z,92.70
2018-01-12T13:48:03.485Z,93.65
2018-01-12T13:50:31.105Z,88.50
2018-01-12T13:52:58.754Z,91.80
2018-01-12T13:55:26.378Z,91.65
2018-01-12T13:57:54.000Z,105.43
2018-01-12T14:00:21.655Z,98.20
2018-01-12T14:02:49.270Z,89.90
2018-01-12T14:05:16.917Z,96.37
2018-01-12T14:07:44.534Z,102.47
2018-01-12T14:10:12.153Z,89.95
2018-01-12T14:12:39.870Z,86.82
2018-01-12T14:15:07.485Z,98.32
2018-01-12T14:17:35.917Z,114.80
2018-01-12T14:20:03.552Z,102.45
2018-01-12T14:22:31.165Z,92.40
2018-01-12T14:24:58.825Z,105.28
2018-01-12T14:27:26.481Z,118.05
2018-01-12T14:29:54.898Z,95.68
2018-01-12T14:32:22.517Z,121.10
2018-01-12T14:34:50.133Z,123.47
2018-01-12T14:37:18.548Z,98.50
2018-01-12T14:39:46.242Z,108.90
2018-01-12T14:42:13.893Z,125.55
2018-01-12T14:44:41.509Z,104.40
2018-01-12T14:47:09.162Z,97.72
2018-01-12T14:49:36.809Z,125.45
2018-01-12T14:52:04.420Z,122.90
2018-01-12T14:54:32.077Z,108.93
2018-01-12T14:56:59.702Z,113.43
2018-01-12T14:59:28.091Z,121.57
2018-01-12T15:01:56.509Z,113.75
2018-01-12T15:04:24.190Z,120.53
2018-01-12T15:06:51.833Z,124.87
2018-01-12T15:09:20.221Z,112.45
2018-01-12T15:11:47.841Z,117.13
2018-01-12T15:14:15.507Z,122.78
2018-01-12T15:16:43.129Z,134.12
2018-01-12T15:19:10.778Z,121.87
2018-01-12T15:21:38.410Z,121.07
2018-01-12T15:24:06.130Z,129.73
2018-01-12T15:26:33.806Z,113.28
2018-01-12T15:29:01.426Z,106.32
2018-01-12T15:31:29.836Z,119.28
2018-01-12T15:33:57.457Z,118.78
2018-01-12T15:36:25.073Z,135.77
2018-01-12T15:38:53.486Z,127.03
2018-01-12T15:41:21.118Z,129.85
2018-01-12T15:43:48.765Z,128.07
2018-01-12T15:46:16.392Z,103.35
2018-01-12T15:48:44.111Z,111.45
2018-01-12T15:51:11.766Z,97.72
2018-01-12T15:53:39.382Z,95.57
2018-01-12T15:56:07.044Z,108.50
2018-01-12T15:58:34.661Z,104.00
2018-01-12T16:01:03.037Z,92.65
2018-01-12T16:03:30.676Z,89.72
2018-01-12T16:05:58.303Z,90.87
2018-01-12T16:08:26.714Z,96.90
2018-01-12T16:10:54.332Z,93.60
2018-01-12T16:13:21.977Z,78.68
2018-01-12T16:15:49.624Z,83.80
2018-01-12T16:18:17.241Z,88.90
2018-01-12T16:20:44.885Z,85.22
2018-01-12T16:23:12.497Z,92.60
2018-01-12T16:25:40.113Z,88.78
2018-01-12T16:28:07.757Z,90.70
2018-01-12T16:30:35.404Z,85.82
2018-01-12T16:33:03.056Z,107.35
2018-01-12T16:35:30.754Z,93.93
2018-01-12T16:37:58.373Z,115.78
2018-01-12T16:40:26.782Z,106.25
2018-01-12T16:42:54.401Z,103.43
2018-01-12T16:45:22.040Z,88.95
2018-01-12T16:47:49.658Z,100.12
2018-01-12T16:50:17.279Z,92.40
2018-01-12T16:52:44.924Z,106.37
2018-01-12T16:55:12.536Z,89.15
2018-01-12T16:57:40.569Z,105.47
2018-01-12T17:00:08.229Z,99.75
2018-01-12T17:02:35.845Z,94.75
2018-01-12T17:05:04.264Z,82.65
2018-01-12T17:07:31.877Z,99.35
2018-01-12T17:09:59.516Z,94.18
2018-01-12T17:12:27.134Z,88.90
2018-01-12T17:14:54.752Z,76.18
2018-01-12T17:17:22.394Z,70.32
2018-01-12T17:19:50.001Z,84.28
2018-01-12T17:22:17.653Z,84.35
2018-01-12T17:24:46.029Z,92.90
2018-01-12T17:27:13.664Z,74.87
2018-01-12T17:29:41.308Z,103.00
2018-01-12T17:32:08.924Z,91.75
2018-01-12T17:34:39.459Z,81.70
2018-01-12T17:37:07.085Z,87.65
2018-01-12T17:39:34.709Z,93.80
2018-01-12T17:42:02.354Z,83.90
2018-01-12T17:44:30.195Z,71.97
2018-01-12T17:46:57.985Z,79.40
2018-01-12T17:49:25.950Z,75.72
2018-01-12T17:51:54.423Z,92.05
2018-01-12T17:54:22.077Z,71.62
2018-01-12T17:56:49.687Z,77.20
2018-01-12T17:59:17.382Z,75.90
2018-01-12T18:01:45.010Z,66.93
2018-01-12T18:04:12.625Z,77.30
2018-01-12T18:06:41.042Z,70.82
2018-01-12T18:09:08.657Z,76.32
2018-01-12T18:11:36.304Z,74.72
2018-01-12T18:14:03.924Z,70.47
2018-01-12T18:16:31.573Z,81.60
2018-01-12T18:18:59.260Z,68.07
2018-01-12T18:21:26.869Z,59.25
2018-01-12T18:23:55.281Z,63.15
2018-01-12T18:26:22.898Z,57.15
2018-01-12T18:28:50.508Z,72.65
2018-01-12T18:31:18.930Z,59.92
2018-01-12T18:33:46.540Z,67.40
2018-01-12T18:36:16.652Z,64.15
2018-01-12T18:38:44.381Z,64.07
2018-01-12T18:41:12.789Z,60.15
2018-01-12T18:43:40.430Z,69.70
2018-01-12T18:46:08.056Z,62.33
2018-01-12T18:48:35.713Z,59.67
2018-01-12T18:51:03.329Z,61.53
2018-01-12T18:53:30.952Z,60.10
2018-01-12T18:55:59.365Z,59.60
2018-01-12T18:58:27.008Z,55.75
2018-01-12T19:00:55.428Z,54.55
2018-01-12T19:03:33.317Z,65.20
2018-01-12T19:06:01.731Z,54.78
2018-01-12T19:08:29.355Z,59.05
2018-01-12T19:10:56.972Z,60.97
2018-01-12T19:13:24.741Z,54.13
2018-01-12T19:15:52.363Z,49.13
2018-01-12T19:18:20.037Z,57.35
2018-01-12T19:20:47.657Z,38.25
2018-01-12T19:23:16.033Z,47.72
2018-01-12T19:25:43.681Z,50.70
2018-01-12T19:28:11.292Z,49.75
2018-01-12T19:30:42.441Z,54.88
2018-01-12T19:33:10.821Z,53.25
2018-01-12T19:35:38.445Z,48.92
2018-01-12T19:38:06.091Z,59.85
2018-01-12T19:40:34.480Z,50.30
2018-01-12T19:43:02.906Z,49.28
2018-01-12T19:45:30.525Z,48.30
2018-01-12T19:47:58.157Z,50.92
2018-01-12T19:50:25.809Z,49.35
2018-01-12T19:52:54.198Z,52.75
2018-01-12T19:55:22.592Z,51.22
2018-01-12T19:57:51.010Z,52.25
2018-01-12T20:00:18.625Z,51.88
2018-01-12T20:02:46.247Z,53.87
2018-01-12T20:05:13.928Z,53.53
2018-01-12T20:07:41.537Z,54.40
2018-01-12T20:10:09.163Z,56.37
2018-01-12T20:12:36.813Z,59.15
2018-01-12T20:15:05.193Z,56.95
2018-01-12T20:17:32.840Z,66.78
2018-01-12T20:20:00.461Z,65.05
2018-01-12T20:22:28.873Z,58.45
2018-01-12T20:24:56.523Z,52.78
2018-01-12T20:27:24.972Z,63.72
2018-01-12T20:29:52.641Z,51.45
2018-01-12T20:32:20.264Z,63.75
2018-01-12T20:34:48.648Z,53.45
2018-01-12T20:37:16.333Z,66.55
2018-01-12T20:39:44.705Z,63.33
2018-01-12T20:42:12.574Z,56.80
2018-01-12T20:44:40.477Z,56.85
2018-01-12T20:47:09.149Z,68.70
2018-01-12T20:49:36.964Z,58.00
2018-01-12T20:52:04.598Z,58.97
2018-01-12T20:54:32.245Z,68.70
2018-01-12T20:56:59.861Z,60.85
2018-01-12T20:59:27.481Z,57.25
2018-01-12T21:01:55.128Z,65.28
2018-01-12T21:04:22.758Z,64.30
2018-01-12T21:06:50.413Z,69.65
2018-01-12T21:09:18.020Z,62.47
2018-01-12T21:11:45.625Z,60.67
2018-01-12T21:14:14.042Z,60.25
2018-01-12T21:16:42.266Z,59.75
2018-01-12T21:19:10.065Z,62.00
2018-01-12T21:21:37.676Z,68.03
2018-01-12T21:24:05.340Z,59.22
2018-01-12T21:26:33.861Z,59.83
2018-01-12T21:29:01.595Z,54.00
2018-01-12T21:31:29.286Z,66.87
2018-01-12T21:33:56.933Z,63.78
2018-01-12T21:36:24.597Z,50.88
2018-01-12T21:38:52.246Z,82.80
2018-01-12T21:41:19.901Z,70.20
2018-01-12T21:43:47.565Z,68.57
2018-01-12T21:46:19.587Z,71.07
2018-01-12T21:48:48.633Z,54.80
2018-01-12T21:51:16.628Z,85.15
2018-01-12T21:53:44.778Z,71.10
2018-01-12T21:56:12.445Z,73.25
2018-01-12T21:58:40.546Z,104.97
2018-01-12T22:01:08.675Z,73.62
2018-01-12T22:03:36.691Z,77.03
2018-01-12T22:06:04.700Z,77.55
2018-01-12T22:08:37.596Z,74.40
2018-01-12T22:11:05.269Z,84.28
2018-01-12T22:13:32.928Z,78.43
2018-01-12T22:16:00.802Z,82.37
2018-01-12T22:18:28.499Z,75.20
2018-01-12T22:20:56.153Z,83.22
2018-01-12T22:23:23.772Z,74.87
2018-01-12T22:25:52.630Z,73.72
2018-01-12T22:28:20.448Z,76.22
2018-01-12T22:30:49.348Z,70.53
2018-01-12T22:33:17.777Z,69.28
2018-01-12T22:35:45.401Z,70.95
2018-01-12T22:38:13.769Z,72.03
2018-01-12T22:40:41.421Z,64.43
2018-01-12T22:43:09.272Z,71.60
2018-01-12T22:45:36.934Z,74.60
2018-01-12T22:48:04.561Z,64.22
2018-01-12T22:50:32.200Z,73.82
2018-01-12T22:52:59.818Z,66.53
2018-01-12T22:55:27.441Z,70.90
2018-01-12T22:57:55.853Z,70.70
2018-01-12T23:00:23.461Z,58.53
2018-01-12T23:02:51.104Z,72.20
2018-01-12T23:05:18.721Z,79.87
2018-01-12T23:07:46.349Z,74.75
2018-01-12T23:10:14.010Z,87.55
2018-01-12T23:12:41.645Z,78.20
2018-01-12T23:15:09.289Z,88.55
2018-01-12T23:17:36.901Z,75.32
2018-01-12T23:20:04.513Z,82.15
2018-01-12T23:22:32.165Z,78.93
2018-01-12T23:25:00.554Z,79.75
2018-01-12T23:27:28.961Z,70.95
2018-01-12T23:29:57.337Z,69.05
2018-01-12T23:32:24.977Z,80.40
2018-01-12T23:34:52.596Z,69.75
2018-01-12T23:37:20.996Z,73.32
2018-01-12T23:39:48.638Z,79.00
2018-01-12T23:42:16.256Z,77.35
2018-01-12T23:44:43.900Z,80.38
2018-01-12T23:47:12.280Z,77.30
2018-01-12T23:49:39.889Z,66.72
2018-01-12T23:52:07.546Z,77.37
2018-01-12T23:54:35.916Z,80.43
2018-01-12T23:57:03.563Z,78.43
2018-01-12T23:59:31.188Z,85.78
